createdAt,value
2022-08-05T00:00:15.945Z,2.58
2022-08-05T00:02:44.200Z,2.08
2022-08-05T00:06:02.475Z,2.15
2022-08-05T00:08:20.063Z,2.05
2022-08-05T00:10:57.320Z,2.30
2022-08-05T00:13:38.495Z,2.15
2022-08-05T00:16:08.714Z,1.88
2022-08-05T00:18:37.894Z,2.28
2022-08-05T00:21:08.356Z,1.80
2022-08-05T00:23:46.681Z,2.05
2022-08-05T00:26:22.040Z,2.22
2022-08-05T00:28:50.230Z,1.90
2022-08-05T00:31:52.999Z,2.17
2022-08-05T00:34:55.987Z,2.10
2022-08-05T00:37:11.367Z,2.00
2022-08-05T00:39:57.376Z,2.15
2022-08-05T00:42:32.922Z,2.00
2022-08-05T00:45:00.888Z,1.67
2022-08-05T00:47:53.097Z,2.10
2022-08-05T00:50:16.365Z,1.90
2022-08-05T00:52:46.843Z,2.20
2022-08-05T00:55:14.947Z,1.80
2022-08-05T00:57:55.389Z,1.90
2022-08-05T01:00:27.172Z,2.10
2022-08-05T01:02:55.080Z,1.90
2022-08-05T01:05:22.892Z,1.90
2022-08-05T01:08:30.811Z,2.17
2022-08-05T01:10:52.420Z,1.70
2022-08-05T01:13:27.139Z,1.90
2022-08-05T01:16:15.557Z,1.90
2022-08-05T01:18:56.365Z,1.70
2022-08-05T01:21:37.831Z,2.00
2022-08-05T01:24:13.142Z,1.75
2022-08-05T01:26:49.088Z,1.67
2022-08-05T01:29:23.088Z,1.75
2022-08-05T01:31:51.988Z,1.80
2022-08-05T01:34:21.909Z,1.80
2022-08-05T01:36:55.960Z,1.60
2022-08-05T01:39:45.601Z,1.77
2022-08-05T01:42:16.028Z,1.60
2022-08-05T01:44:45.654Z,1.75
2022-08-05T01:47:21.990Z,1.75
2022-08-05T01:50:01.450Z,1.60
2022-08-05T01:52:30.157Z,1.67
2022-08-05T01:54:58.795Z,1.42
2022-08-05T01:58:09.945Z,1.80
2022-08-05T02:00:18.706Z,1.80
2022-08-05T02:02:53.666Z,1.65
2022-08-05T02:05:23.982Z,1.67
2022-08-05T02:08:01.118Z,1.60
2022-08-05T02:10:32.176Z,1.50
2022-08-05T02:13:16.347Z,1.60
2022-08-05T02:15:47.434Z,1.50
2022-08-05T02:18:31.053Z,1.50
2022-08-05T02:21:04.503Z,1.70
2022-08-05T02:23:35.696Z,1.63
2022-08-05T02:26:04.492Z,1.42
2022-08-05T02:28:38.427Z,1.33
2022-08-05T02:31:14.501Z,1.65
2022-08-05T02:33:45.609Z,1.50
2022-08-05T02:36:17.870Z,1.75
2022-08-05T02:38:53.564Z,1.60
2022-08-05T02:41:22.836Z,1.50
2022-08-05T02:44:06.309Z,1.70
2022-08-05T02:46:53.817Z,1.50
2022-08-05T02:49:35.554Z,1.70
2022-08-05T02:52:06.780Z,1.50
2022-08-05T02:54:36.956Z,1.50
2022-08-05T02:57:10.084Z,1.38
2022-08-05T02:59:54.009Z,1.50
2022-08-05T03:02:27.398Z,1.42
2022-08-05T03:04:55.501Z,1.60
2022-08-05T03:07:59.154Z,1.70
2022-08-05T03:10:11.309Z,1.50
2022-08-05T03:12:41.285Z,1.48
2022-08-05T03:15:12.262Z,1.35
2022-08-05T03:17:44.758Z,1.60
2022-08-05T03:20:13.477Z,1.30
2022-08-05T03:22:44.076Z,1.67
2022-08-05T03:25:32.710Z,1.42
2022-08-05T03:28:02.692Z,1.70
2022-08-05T03:30:34.055Z,1.80
2022-08-05T03:33:03.719Z,1.60
2022-08-05T03:35:33.692Z,1.40
2022-08-05T03:38:02.499Z,1.33
2022-08-05T03:40:32.110Z,1.30
2022-08-05T03:43:01.238Z,1.70
2022-08-05T03:45:29.642Z,1.60
2022-08-05T03:48:22.768Z,1.40
2022-08-05T03:50:53.644Z,1.40
2022-08-05T03:55:06.751Z,1.40
2022-08-05T03:56:26.901Z,1.52
2022-08-05T03:59:02.235Z,1.40
2022-08-05T04:01:32.308Z,1.60
2022-08-05T04:04:10.407Z,1.30
2022-08-05T04:06:38.455Z,1.65
2022-08-05T04:09:15.544Z,1.60
2022-08-05T04:11:52.570Z,1.23
2022-08-05T04:14:30.357Z,1.48
2022-08-05T04:16:59.813Z,1.35
2022-08-05T04:19:29.145Z,1.30
2022-08-05T04:22:08.788Z,1.30
2022-08-05T04:24:43.899Z,1.60
2022-08-05T04:27:13.109Z,1.27
2022-08-05T04:29:41.257Z,1.30
2022-08-05T04:32:09.182Z,1.40
2022-08-05T04:34:43.027Z,1.60
2022-08-05T04:37:11.091Z,1.25
2022-08-05T04:39:39.189Z,1.58
2022-08-05T04:42:09.061Z,1.45
2022-08-05T04:44:36.965Z,1.30
2022-08-05T04:47:09.033Z,1.30
2022-08-05T04:50:02.907Z,1.30
2022-08-05T04:52:27.964Z,1.60
2022-08-05T04:54:57.473Z,1.30
2022-08-05T04:57:29.125Z,1.17
2022-08-05T04:59:58.504Z,1.20
2022-08-05T05:02:37.045Z,1.10
2022-08-05T05:05:26.399Z,1.48
2022-08-05T05:08:01.088Z,1.40
2022-08-05T05:10:30.143Z,1.38
2022-08-05T05:12:57.920Z,1.30
2022-08-05T05:15:56.481Z,1.05
2022-08-05T05:18:13.984Z,1.17
2022-08-05T05:20:43.646Z,1.33
2022-08-05T05:23:19.887Z,1.33
2022-08-05T05:25:47.967Z,1.33
2022-08-05T05:28:15.671Z,1.40
2022-08-05T05:30:43.554Z,1.30
2022-08-05T05:33:17.855Z,1.27
2022-08-05T05:35:52.556Z,2.10
2022-08-05T05:38:22.440Z,1.50
2022-08-05T05:40:55.689Z,1.60
2022-08-05T05:43:54.398Z,2.00
2022-08-05T05:46:17.452Z,2.10
2022-08-05T05:48:47.956Z,1.80
2022-08-05T05:51:21.534Z,1.67
2022-08-05T05:53:57.996Z,1.88
2022-08-05T05:56:32.407Z,2.17
2022-08-05T05:59:03.163Z,1.85
2022-08-05T06:01:37.701Z,2.47
2022-08-05T06:04:08.016Z,1.73
2022-08-05T06:06:37.369Z,1.75
2022-08-05T06:09:09.627Z,2.13
2022-08-05T06:11:59.589Z,2.20
2022-08-05T06:14:29.919Z,1.77
2022-08-05T06:16:57.809Z,1.88
2022-08-05T06:19:33.923Z,1.80
2022-08-05T06:22:04.390Z,2.10
2022-08-05T06:24:34.768Z,2.42
2022-08-05T06:27:03.861Z,2.17
2022-08-05T06:29:46.389Z,2.05
2022-08-05T06:32:25.825Z,2.13
2022-08-05T06:34:56.740Z,2.50
2022-08-05T06:37:57.507Z,2.30
2022-08-05T06:40:17.856Z,2.80
2022-08-05T06:42:48.569Z,2.45
2022-08-05T06:45:44.120Z,2.72
2022-08-05T06:48:44.120Z,2.47
2022-08-05T06:50:56.242Z,2.20
2022-08-05T06:53:28.343Z,2.40
2022-08-05T06:55:56.913Z,2.42
2022-08-05T06:58:35.033Z,2.15
2022-08-05T07:01:05.061Z,2.30
2022-08-05T07:03:33.400Z,2.88
2022-08-05T07:06:01.880Z,2.10
2022-08-05T07:08:35.380Z,2.25
2022-08-05T07:11:04.573Z,2.20
2022-08-05T07:13:58.515Z,2.75
2022-08-05T07:17:56.776Z,2.30
2022-08-05T07:22:28.922Z,2.55
2022-08-05T07:24:59.604Z,2.30
2022-08-05T07:27:56.503Z,2.90
2022-08-05T07:30:31.736Z,2.83
2022-08-05T07:33:00.950Z,2.13
2022-08-05T07:36:04.715Z,3.20
2022-08-05T07:38:32.138Z,2.70
2022-08-05T07:41:35.007Z,3.55
2022-08-05T07:43:52.604Z,3.45
2022-08-05T07:46:25.319Z,3.20
2022-08-05T07:49:04.306Z,4.32
2022-08-05T07:51:40.777Z,3.65
2022-08-05T07:54:16.692Z,3.00
2022-08-05T07:57:02.087Z,3.20
2022-08-05T07:59:39.746Z,2.97
2022-08-05T08:02:15.207Z,2.95
2022-08-05T08:04:45.757Z,2.72
2022-08-05T08:07:13.730Z,2.95
2022-08-05T08:09:41.612Z,3.47
2022-08-05T08:12:27.253Z,2.83
2022-08-05T08:15:02.427Z,2.85
2022-08-05T08:17:31.458Z,2.92
2022-08-05T08:20:23.515Z,2.78
2022-08-05T08:22:52.034Z,2.65
2022-08-05T08:25:27.200Z,2.47
2022-08-05T08:28:18.268Z,2.10
2022-08-05T08:30:47.984Z,2.58
2022-08-05T08:33:19.099Z,2.50
2022-08-05T08:35:52.761Z,2.17
2022-08-05T08:38:35.590Z,2.40
2022-08-05T08:41:06.278Z,2.22
2022-08-05T08:45:19.238Z,2.40
2022-08-05T08:46:24.294Z,2.33
2022-08-05T08:49:07.721Z,1.98
2022-08-05T08:52:03.648Z,2.10
2022-08-05T08:54:27.908Z,2.72
2022-08-05T08:56:56.457Z,1.90
2022-08-05T08:59:27.509Z,2.40
2022-08-05T09:01:56.976Z,2.03
2022-08-05T09:04:30.471Z,2.00
2022-08-05T09:06:58.889Z,1.60
2022-08-05T09:09:34.609Z,2.10
2022-08-05T09:12:19.815Z,2.10
2022-08-05T09:14:56.509Z,1.92
2022-08-05T09:17:41.220Z,2.03
2022-08-05T09:20:11.907Z,2.53
2022-08-05T09:23:07.808Z,2.55
2022-08-05T09:26:00.818Z,2.75
2022-08-05T09:28:32.205Z,2.92
2022-08-05T09:31:22.925Z,3.83
2022-08-05T09:33:54.229Z,3.10
2022-08-05T09:36:27.729Z,3.20
2022-08-05T09:39:02.402Z,2.47
2022-08-05T09:41:33.229Z,2.90
2022-08-05T09:44:06.878Z,3.40
2022-08-05T09:46:35.909Z,2.50
2022-08-05T09:49:19.263Z,3.83
2022-08-05T09:51:49.401Z,2.38
2022-08-05T09:54:29.109Z,3.00
2022-08-05T09:57:01.278Z,2.53
2022-08-05T09:59:29.553Z,2.50
2022-08-05T10:02:04.241Z,2.10
2022-08-05T10:04:38.653Z,2.40
2022-08-05T10:07:14.266Z,2.25
2022-08-05T10:10:14.297Z,2.42
2022-08-05T10:12:49.916Z,2.25
2022-08-05T10:15:22.789Z,2.10
2022-08-05T10:18:10.978Z,2.30
2022-08-05T10:20:41.611Z,3.42
2022-08-05T10:23:34.618Z,3.00
2022-08-05T10:25:59.956Z,2.42
2022-08-05T10:28:29.258Z,3.45
2022-08-05T10:32:47.463Z,4.85
2022-08-05T10:33:54.034Z,3.20
2022-08-05T10:36:23.575Z,2.50
2022-08-05T10:38:56.327Z,2.95
2022-08-05T10:41:29.055Z,2.70
2022-08-05T10:44:17.154Z,3.00
2022-08-05T10:46:50.937Z,3.83
2022-08-05T10:49:27.625Z,3.20
2022-08-05T10:52:03.216Z,2.72
2022-08-05T10:54:56.489Z,2.92
2022-08-05T10:57:30.896Z,2.75
2022-08-05T11:00:19.760Z,2.67
2022-08-05T11:03:24.750Z,2.53
2022-08-05T11:06:15.956Z,2.80
2022-08-05T11:09:24.408Z,3.40
2022-08-05T11:12:08.023Z,3.30
2022-08-05T11:18:07.475Z,3.42
2022-08-05T11:20:39.074Z,3.80
2022-08-05T11:24:05.352Z,3.58
2022-08-05T11:26:27.998Z,3.65
2022-08-05T11:29:02.370Z,3.35
2022-08-05T11:31:58.825Z,4.10
2022-08-05T11:34:37.003Z,3.63
2022-08-05T11:38:25.978Z,2.30
2022-08-05T11:39:55.419Z,2.20
2022-08-05T11:42:28.335Z,1.88
2022-08-05T11:45:03.043Z,2.20
2022-08-05T11:47:48.932Z,2.50
2022-08-05T11:50:17.994Z,1.90
2022-08-05T11:52:48.861Z,2.85
2022-08-05T11:55:19.444Z,2.25
2022-08-05T11:58:09.877Z,2.53
2022-08-05T12:00:38.615Z,2.45
2022-08-05T12:03:29.218Z,2.60
2022-08-05T12:06:03.414Z,2.22
2022-08-05T12:08:34.486Z,2.47
2022-08-05T12:11:09.168Z,2.50
2022-08-05T12:13:48.510Z,1.95
2022-08-05T12:16:19.316Z,1.88
2022-08-05T12:18:49.593Z,1.83
2022-08-05T12:21:23.758Z,2.45
2022-08-05T12:23:58.303Z,2.38
2022-08-05T12:26:33.243Z,2.03
2022-08-05T12:29:01.343Z,2.70
2022-08-05T12:31:42.366Z,2.50
2022-08-05T12:34:20.575Z,2.50
2022-08-05T12:36:49.632Z,1.63
2022-08-05T12:39:17.634Z,2.15
2022-08-05T12:41:47.236Z,2.20
2022-08-05T12:44:32.591Z,3.40
2022-08-05T12:47:02.156Z,3.22
2022-08-05T12:50:03.937Z,2.50
2022-08-05T12:52:32.383Z,22.40
2022-08-05T12:55:03.298Z,3.25
2022-08-05T12:58:38.235Z,6.13
2022-08-05T13:02:00.691Z,5.00
2022-08-05T13:03:14.865Z,4.00
2022-08-05T13:05:42.726Z,4.43
2022-08-05T13:08:10.994Z,3.80
2022-08-05T13:10:50.264Z,3.50
2022-08-05T13:14:06.516Z,2.97
2022-08-05T13:16:15.509Z,3.00
2022-08-05T13:18:52.056Z,3.28
2022-08-05T13:21:22.612Z,3.38
2022-08-05T13:23:55.913Z,4.25
2022-08-05T13:26:30.306Z,10.75
2022-08-05T13:28:59.555Z,9.15
2022-08-05T13:32:03.094Z,7.65
2022-08-05T13:34:22.600Z,6.65
2022-08-05T13:36:53.209Z,6.55
2022-08-05T13:40:14.008Z,6.05
2022-08-05T13:42:15.124Z,4.75
2022-08-05T13:44:45.751Z,5.07
2022-08-05T13:47:21.647Z,4.28
2022-08-05T13:50:04.371Z,3.95
2022-08-05T13:52:35.676Z,3.63
2022-08-05T13:55:07.885Z,3.28
2022-08-05T13:57:50.951Z,2.50
2022-08-05T14:00:26.778Z,2.78
2022-08-05T14:02:56.287Z,3.22
2022-08-05T14:05:48.407Z,3.20
2022-08-05T14:08:19.871Z,2.58
2022-08-05T14:10:48.556Z,2.42
2022-08-05T14:13:16.411Z,2.55
2022-08-05T14:16:08.155Z,2.28
2022-08-05T14:18:33.303Z,2.35
2022-08-05T14:21:00.997Z,2.20
2022-08-05T14:23:48.717Z,2.00
2022-08-05T14:26:35.624Z,1.88
2022-08-05T14:29:04.136Z,2.88
2022-08-05T14:31:54.378Z,2.45
2022-08-05T14:34:23.610Z,2.60
2022-08-05T14:36:51.548Z,2.20
2022-08-05T14:39:23.212Z,2.05
2022-08-05T14:42:15.891Z,2.25
2022-08-05T14:44:39.058Z,2.33
2022-08-05T14:47:08.884Z,2.40
2022-08-05T14:49:58.559Z,3.03
2022-08-05T14:52:50.132Z,2.70
2022-08-05T14:55:13.916Z,2.78
2022-08-05T14:57:56.089Z,3.08
2022-08-05T15:00:28.248Z,3.47
2022-08-05T15:02:59.093Z,3.03
2022-08-05T15:05:29.973Z,2.92
2022-08-05T15:08:17.940Z,2.60
2022-08-05T15:11:02.764Z,2.30
2022-08-05T15:13:46.078Z,2.65
2022-08-05T15:16:14.367Z,2.80
2022-08-05T15:18:43.367Z,3.08
2022-08-05T15:21:14.973Z,2.38
2022-08-05T15:23:48.771Z,2.83
2022-08-05T15:26:17.421Z,3.28
2022-08-05T15:29:00.107Z,2.00
2022-08-05T15:31:34.771Z,2.10
2022-08-05T15:34:31.915Z,1.98
2022-08-05T15:36:51.961Z,2.60
2022-08-05T15:41:01.186Z,2.53
2022-08-05T15:42:28.769Z,1.92
2022-08-05T15:44:55.456Z,2.85
2022-08-05T15:47:23.635Z,3.35
2022-08-05T15:49:59.140Z,2.97
2022-08-05T15:52:51.894Z,2.30
2022-08-05T15:55:16.566Z,2.70
2022-08-05T15:57:45.095Z,2.75
2022-08-05T16:00:13.626Z,3.10
2022-08-05T16:02:44.688Z,2.80
2022-08-05T16:05:13.763Z,3.05
2022-08-05T16:07:46.228Z,2.92
2022-08-05T16:10:14.392Z,2.85
2022-08-05T16:12:42.525Z,2.40
2022-08-05T16:15:11.035Z,2.20
2022-08-05T16:17:57.380Z,2.63
2022-08-05T16:20:27.955Z,2.55
2022-08-05T16:22:55.893Z,2.67
2022-08-05T16:25:32.167Z,2.40
2022-08-05T16:28:05.899Z,2.30
2022-08-05T16:30:34.512Z,2.42
2022-08-05T16:33:03.934Z,2.33
2022-08-05T16:35:33.625Z,2.60
2022-08-05T16:38:24.421Z,2.17
2022-08-05T16:40:59.872Z,2.40
2022-08-05T16:43:30.135Z,2.20
2022-08-05T16:46:05.191Z,3.25
2022-08-05T16:48:37.426Z,2.85
2022-08-05T16:51:09.257Z,2.30
2022-08-05T16:54:06.050Z,2.55
2022-08-05T16:56:27.163Z,2.40
2022-08-05T16:58:55.195Z,2.25
2022-08-05T17:01:24.226Z,2.15
2022-08-05T17:03:52.632Z,2.00
2022-08-05T17:06:22.330Z,2.67
2022-08-05T17:08:54.311Z,2.50
2022-08-05T17:11:23.731Z,2.13
2022-08-05T17:14:00.244Z,2.17
2022-08-05T17:16:35.963Z,2.30
2022-08-05T17:19:07.583Z,2.08
2022-08-05T17:21:39.429Z,2.15
2022-08-05T17:24:30.218Z,2.00
2022-08-05T17:26:56.718Z,2.28
2022-08-05T17:29:33.665Z,1.80
2022-08-05T17:32:08.541Z,2.15
2022-08-05T17:34:39.845Z,2.20
2022-08-05T17:37:39.417Z,2.40
2022-08-05T17:39:57.497Z,2.45
2022-08-05T17:42:32.020Z,1.70
2022-08-05T17:45:05.030Z,1.95
2022-08-05T17:47:51.336Z,1.63
2022-08-05T17:50:27.758Z,2.15
2022-08-05T17:52:59.718Z,1.77
2022-08-05T17:55:38.239Z,2.00
2022-08-05T17:58:09.716Z,1.85
2022-08-05T18:00:44.446Z,1.80
2022-08-05T18:03:28.014Z,1.88
2022-08-05T18:06:04.512Z,2.00
2022-08-05T18:08:34.493Z,1.92
2022-08-05T18:11:03.193Z,1.70
2022-08-05T18:13:36.660Z,1.60
2022-08-05T18:16:13.562Z,1.77
2022-08-05T18:18:41.689Z,1.75
2022-08-05T18:21:21.069Z,1.98
2022-08-05T18:23:53.982Z,1.45
2022-08-05T18:26:22.283Z,2.03
2022-08-05T18:28:57.325Z,1.70
2022-08-05T18:31:25.118Z,1.63
2022-08-05T18:33:53.766Z,1.48
2022-08-05T18:36:27.962Z,1.70
2022-08-05T18:38:57.449Z,1.58
2022-08-05T18:41:57.002Z,1.65
2022-08-05T18:44:12.999Z,1.60
2022-08-05T18:46:41.111Z,1.55
2022-08-05T18:49:23.053Z,1.80
2022-08-05T18:52:16.126Z,1.58
2022-08-05T18:54:45.760Z,2.03
2022-08-05T18:57:15.310Z,1.55
2022-08-05T19:00:01.682Z,1.45
2022-08-05T19:02:31.265Z,1.40
2022-08-05T19:05:02.314Z,1.55
2022-08-05T19:07:47.968Z,1.58
2022-08-05T19:10:17.541Z,1.30
2022-08-05T19:12:46.229Z,1.35
2022-08-05T19:15:57.676Z,1.38
2022-08-05T19:18:09.365Z,1.40
2022-08-05T19:20:41.667Z,1.33
2022-08-05T19:24:05.011Z,1.30
2022-08-05T19:26:02.086Z,1.40
2022-08-05T19:28:30.755Z,1.40
2022-08-05T19:30:59.085Z,1.20
2022-08-05T19:33:35.715Z,1.10
2022-08-05T19:36:06.428Z,1.40
2022-08-05T19:38:35.758Z,1.40
2022-08-05T19:41:07.157Z,1.20
2022-08-05T19:44:06.729Z,1.33
2022-08-05T19:46:29.171Z,1.42
2022-08-05T19:48:57.641Z,1.40
2022-08-05T19:52:05.267Z,1.40
2022-08-05T19:54:25.490Z,1.33
2022-08-05T19:56:59.972Z,1.52
2022-08-05T19:59:54.966Z,1.27
2022-08-05T20:02:18.585Z,1.23
2022-08-05T20:04:46.471Z,1.25
2022-08-05T20:07:46.251Z,1.30
2022-08-05T20:10:11.507Z,1.20
2022-08-05T20:12:47.851Z,1.52
2022-08-05T20:15:48.927Z,1.27
2022-08-05T20:18:10.384Z,1.23
2022-08-05T20:20:55.049Z,1.30
2022-08-05T20:23:23.758Z,1.42
2022-08-05T20:26:08.780Z,1.38
2022-08-05T20:28:46.060Z,1.67
2022-08-05T20:31:16.470Z,1.40
2022-08-05T20:33:45.163Z,1.60
2022-08-05T20:36:14.381Z,1.50
2022-08-05T20:38:53.397Z,1.45
2022-08-05T20:41:24.183Z,1.60
2022-08-05T20:44:00.428Z,1.63
2022-08-05T20:46:33.316Z,1.70
2022-08-05T20:49:01.002Z,1.50
2022-08-05T20:51:30.385Z,1.67
2022-08-05T20:54:01.098Z,1.60
2022-08-05T20:56:32.957Z,1.33
2022-08-05T20:59:14.026Z,1.55
2022-08-05T21:01:47.287Z,1.60
2022-08-05T21:04:16.306Z,2.08
2022-08-05T21:06:45.532Z,1.52
2022-08-05T21:09:14.313Z,1.33
2022-08-05T21:12:09.679Z,1.77
2022-08-05T21:14:35.192Z,1.80
2022-08-05T21:17:05.187Z,1.65
2022-08-05T21:19:47.232Z,1.67
2022-08-05T21:22:18.355Z,1.70
2022-08-05T21:24:51.825Z,1.30
2022-08-05T21:27:20.697Z,1.60
2022-08-05T21:29:55.508Z,1.40
2022-08-05T21:32:23.682Z,1.85
2022-08-05T21:35:06.759Z,1.50
2022-08-05T21:37:41.245Z,1.60
2022-08-05T21:40:13.781Z,1.75
2022-08-05T21:42:45.287Z,1.65
2022-08-05T21:45:25.091Z,1.83
2022-08-05T21:47:57.134Z,2.40
2022-08-05T21:50:25.838Z,3.80
2022-08-05T21:52:53.575Z,4.82
2022-08-05T21:56:01.234Z,7.78
2022-08-05T21:58:13.907Z,9.80
2022-08-05T22:00:50.973Z,10.95
2022-08-05T22:03:20.535Z,13.10
2022-08-05T22:06:08.357Z,18.23
2022-08-05T22:08:36.144Z,19.77
2022-08-05T22:11:11.019Z,19.65
2022-08-05T22:14:32.408Z,21.23
2022-08-05T22:16:41.596Z,22.33
2022-08-05T22:19:57.413Z,22.27
2022-08-05T22:22:06.251Z,23.40
2022-08-05T22:24:53.580Z,24.58
2022-08-05T22:28:08.250Z,25.05
2022-08-05T22:30:35.443Z,25.80
2022-08-05T22:33:15.445Z,24.63
2022-08-05T22:35:48.747Z,27.67
2022-08-05T22:38:18.992Z,27.38
2022-08-05T22:40:49.853Z,28.25
2022-08-05T22:43:36.510Z,27.45
2022-08-05T22:46:12.019Z,29.67
2022-08-05T22:48:43.336Z,31.42
2022-08-05T22:51:22.499Z,30.85
2022-08-05T22:53:50.787Z,32.72
2022-08-05T22:56:30.337Z,34.70
2022-08-05T22:59:00.112Z,33.63
2022-08-05T23:02:04.630Z,35.45
2022-08-05T23:04:41.403Z,35.63
2022-08-05T23:07:09.086Z,38.72
2022-08-05T23:09:57.251Z,39.88
2022-08-05T23:12:24.701Z,43.40
2022-08-05T23:14:52.689Z,41.20
2022-08-05T23:17:34.368Z,45.13
2022-08-05T23:20:16.337Z,45.30
2022-08-05T23:22:47.329Z,49.63
2022-08-05T23:25:17.417Z,51.20
2022-08-05T23:28:03.759Z,54.25
2022-08-05T23:30:39.787Z,54.72
2022-08-05T23:33:22.604Z,57.45
2022-08-05T23:35:56.324Z,56.42
2022-08-05T23:38:25.766Z,58.50
2022-08-05T23:40:53.443Z,60.50
2022-08-05T23:43:25.408Z,60.58
2022-08-05T23:46:21.040Z,61.95
2022-08-05T23:48:59.627Z,63.55
2022-08-05T23:51:53.714Z,64.30
2022-08-05T23:54:25.134Z,67.32
2022-08-05T23:56:54.652Z,64.18
2022-08-05T23:59:23.018Z,65.22
